This is the latest recevied weather packets stored in our database for station/object KO4ZGL-13. If no packets are shown the sender has not sent any weather packets the latest 10 day(s).
| Time | Temp. | Humidity | Pressure | Rain* | Wind** | Luminosity | Snow |
|---|---|---|---|---|---|---|---|
| 1778174920 | 22.78° C | 91% | 1010.6 hPa | 1.27 mm | - | 195 W/m² | - |
| 1778174617 | 22.22° C | 90% | 1010.6 hPa | 1.27 mm | - | 473 W/m² | - |
| 1778174313 | 22.78° C | 89% | 1010.6 hPa | 1.27 mm | - | 121 W/m² | - |
| 1778174010 | 22.78° C | 86% | 1010.5 hPa | 0 mm | - | 47 W/m² | - |
| 1778173707 | 22.78° C | 85% | 1010.6 hPa | 0 mm | - | 59 W/m² | - |
| 1778173403 | 22.78° C | 87% | 1010.7 hPa | 0 mm | - | 77 W/m² | - |
| 1778173099 | 22.78° C | 88% | 1010.9 hPa | 0 mm | - | 121 W/m² | - |
| 1778172795 | 22.78° C | 89% | 1010.9 hPa | 0 mm | - | 198 W/m² | - |
| 1778172492 | 22.22° C | 90% | 1010.9 hPa | 0 mm | - | 251 W/m² | - |
| 1778172189 | 22.22° C | 92% | 1010.8 hPa | 0 mm | - | 293 W/m² | - |
| 1778171886 | 21.67° C | 91% | 1010.8 hPa | 0 mm | - | 310 W/m² | - |
| 1778171584 | 21.67° C | 90% | 1010.5 hPa | 0 mm | - | 202 W/m² | - |
| 1778171279 | 21.67° C | 88% | 1010 hPa | 0 mm | - | 119 W/m² | - |
| 1778170975 | 21.67° C | 86% | 1009.7 hPa | 0 mm | - | 135 W/m² | - |
| 1778170673 | 21.11° C | 88% | 1009.6 hPa | 0 mm | - | 99 W/m² | - |
| 1778170369 | 20.56° C | 89% | 1009.9 hPa | 0 mm | - | 71 W/m² | - |
| 1778170065 | 20.56° C | 92% | 1010.6 hPa | 0 mm | - | 67 W/m² | - |
| 1778169762 | 20° C | 92% | 1010.7 hPa | 0 mm | - | 74 W/m² | - |
| 1778169457 | 20° C | 93% | 1010.9 hPa | 0 mm | - | 89 W/m² | - |
| 1778169153 | 20° C | 93% | 1010.9 hPa | 1.78 mm | - | 83 W/m² | - |
| 1778168851 | 20° C | 93% | 1010.9 hPa | 1.78 mm | - | 68 W/m² | - |
| 1778168548 | 20° C | 93% | 1010.8 hPa | 0 mm | - | 66 W/m² | - |
| 1778168245 | 20° C | 93% | 1011.4 hPa | 0 mm | - | 71 W/m² | - |
| 1778167941 | 20° C | 93% | 1011.7 hPa | 0 mm | - | 82 W/m² | - |
| 1778167637 | 20° C | 92% | 1012 hPa | 1.27 mm | - | 83 W/m² | - |
* Rain latest hour (hover to see other rain measurements)
** Current wind speed in m/s (hover to see current wind gust speed)